Concord, California
Current Conditions -  °F | °C
As of 7:53 PM on Wednesday 26 Nov 2014 (Local Time) from KCCR Reporting Station
Haze Haze  
Wind Chill: 53°   Ceiling: Unl
Heat Index: 53°   Visibility: 5mi
Dew Point: 47°   Wind: 0mph
Humidity: 80%   Direction: NA
Pressure: 30.23"   Gusts: NA
Location:  37.98°N, 122.02°W
Report Text: KCCR 270353Z 00000KT 5SM HZ CLR 12/08 A3023 RMK AO2 SLP221 T01170083
Loading
Personal Weather Stations






























Interactive Weather Map New forecast layout! Learn more

10-Day Weather Forecast

Advertisements
Track Severe Weather on mobile